sensor_id;sensor_type;location;lat;lon;timestamp;pressure;altitude;pressure_sealevel;temperature;humidity
50103;BME280;35993;52.604;10.078;2022-09-09T00:02:19;100525.47;;;13.97;100.00
50103;BME280;35993;52.604;10.078;2022-09-09T00:04:59;100521.56;;;13.93;100.00
50103;BME280;35993;52.604;10.078;2022-09-09T00:15:13;100511.97;;;13.90;100.00
50103;BME280;35993;52.604;10.078;2022-09-09T00:17:52;100520.88;;;13.86;100.00
50103;BME280;35993;52.604;10.078;2022-09-09T00:23:30;100519.22;;;13.85;100.00
50103;BME280;35993;52.604;10.078;2022-09-09T00:28:31;100519.28;;;13.73;100.00
50103;BME280;35993;52.604;10.078;2022-09-09T00:31:12;100517.84;;;13.70;100.00
50103;BME280;35993;52.604;10.078;2022-09-09T00:33:39;100526.41;;;13.74;100.00
50103;BME280;35993;52.604;10.078;2022-09-09T00:36:11;100519.53;;;13.71;100.00
50103;BME280;35993;52.604;10.078;2022-09-09T00:38:42;100511.59;;;13.70;100.00
50103;BME280;35993;52.604;10.078;2022-09-09T00:43:37;100510.53;;;13.71;100.00
50103;BME280;35993;52.604;10.078;2022-09-09T00:51:29;100505.53;;;13.68;100.00
50103;BME280;35993;52.604;10.078;2022-09-09T00:57:10;100504.84;;;13.60;100.00
50103;BME280;35993;52.604;10.078;2022-09-09T00:59:52;100513.63;;;13.63;100.00
50103;BME280;35993;52.604;10.078;2022-09-09T01:02:39;100513.13;;;13.66;100.00
50103;BME280;35993;52.604;10.078;2022-09-09T01:05:19;100507.09;;;13.64;100.00
50103;BME280;35993;52.604;10.078;2022-09-09T01:07:48;100508.41;;;13.61;100.00
50103;BME280;35993;52.604;10.078;2022-09-09T01:12:58;100508.88;;;13.58;100.00
50103;BME280;35993;52.604;10.078;2022-09-09T01:15:29;100513.03;;;13.60;100.00
50103;BME280;35993;52.604;10.078;2022-09-09T01:18:04;100510.44;;;13.54;100.00
50103;BME280;35993;52.604;10.078;2022-09-09T01:26:13;100510.13;;;13.38;100.00
50103;BME280;35993;52.604;10.078;2022-09-09T01:28:47;100510.47;;;13.42;100.00
50103;BME280;35993;52.604;10.078;2022-09-09T01:31:19;100516.63;;;13.49;100.00
50103;BME280;35993;52.604;10.078;2022-09-09T01:33:47;100510.69;;;13.52;100.00
50103;BME280;35993;52.604;10.078;2022-09-09T01:36:36;100510.94;;;13.51;100.00
50103;BME280;35993;52.604;10.078;2022-09-09T01:39:04;100512.59;;;13.52;100.00
50103;BME280;35993;52.604;10.078;2022-09-09T01:41:31;100504.88;;;13.49;100.00
50103;BME280;35993;52.604;10.078;2022-09-09T01:44:07;100514.97;;;13.36;100.00
50103;BME280;35993;52.604;10.078;2022-09-09T01:46:35;100516.75;;;13.31;100.00
50103;BME280;35993;52.604;10.078;2022-09-09T01:49:03;100516.66;;;13.25;100.00
50103;BME280;35993;52.604;10.078;2022-09-09T01:51:30;100512.50;;;13.23;100.00
50103;BME280;35993;52.604;10.078;2022-09-09T01:54:00;100513.09;;;13.25;100.00
50103;BME280;35993;52.604;10.078;2022-09-09T01:56:34;100503.50;;;13.22;100.00
50103;BME280;35993;52.604;10.078;2022-09-09T02:02:10;100495.44;;;13.16;100.00
50103;BME280;35993;52.604;10.078;2022-09-09T02:04:52;100495.44;;;13.16;100.00
50103;BME280;35993;52.604;10.078;2022-09-09T02:07:43;100493.34;;;13.06;100.00
50103;BME280;35993;52.604;10.078;2022-09-09T02:10:36;100494.41;;;13.05;100.00
50103;BME280;35993;52.604;10.078;2022-09-09T02:13:18;100515.84;;;13.01;100.00
50103;BME280;35993;52.604;10.078;2022-09-09T02:16:01;100508.63;;;12.95;100.00
50103;BME280;35993;52.604;10.078;2022-09-09T02:21:30;100515.00;;;12.89;100.00
50103;BME280;35993;52.604;10.078;2022-09-09T02:23:58;100514.06;;;12.95;100.00
50103;BME280;35993;52.604;10.078;2022-09-09T02:26:28;100511.34;;;12.95;100.00
50103;BME280;35993;52.604;10.078;2022-09-09T02:29:01;100513.34;;;13.00;100.00
50103;BME280;35993;52.604;10.078;2022-09-09T02:31:28;100506.59;;;13.02;100.00
50103;BME280;35993;52.604;10.078;2022-09-09T02:34:01;100504.69;;;13.03;100.00
50103;BME280;35993;52.604;10.078;2022-09-09T02:36:31;100500.09;;;13.03;100.00
50103;BME280;35993;52.604;10.078;2022-09-09T02:38:59;100494.53;;;12.98;100.00
50103;BME280;35993;52.604;10.078;2022-09-09T02:41:33;100493.13;;;12.95;100.00
50103;BME280;35993;52.604;10.078;2022-09-09T02:43:59;100498.06;;;12.99;100.00
50103;BME280;35993;52.604;10.078;2022-09-09T02:49:23;100498.06;;;13.10;100.00
50103;BME280;35993;52.604;10.078;2022-09-09T02:52:04;100497.72;;;13.07;100.00
50103;BME280;35993;52.604;10.078;2022-09-09T02:54:33;100499.97;;;13.10;100.00
50103;BME280;35993;52.604;10.078;2022-09-09T02:57:16;100505.66;;;13.08;100.00
50103;BME280;35993;52.604;10.078;2022-09-09T02:59:46;100506.81;;;13.13;100.00
50103;BME280;35993;52.604;10.078;2022-09-09T03:02:12;100501.03;;;13.09;100.00
50103;BME280;35993;52.604;10.078;2022-09-09T03:04:40;100500.78;;;13.10;100.00
50103;BME280;35993;52.604;10.078;2022-09-09T03:07:09;100500.06;;;13.15;100.00
50103;BME280;35993;52.604;10.078;2022-09-09T03:09:35;100508.25;;;13.15;100.00
50103;BME280;35993;52.604;10.078;2022-09-09T03:12:01;100503.97;;;13.19;100.00
50103;BME280;35993;52.604;10.078;2022-09-09T03:14:28;100506.00;;;13.24;100.00
50103;BME280;35993;52.604;10.078;2022-09-09T03:16:54;100507.53;;;13.20;100.00
50103;BME280;35993;52.604;10.078;2022-09-09T03:19:22;100502.19;;;13.25;100.00
50103;BME280;35993;52.604;10.078;2022-09-09T03:21:49;100515.94;;;13.30;100.00
50103;BME280;35993;52.604;10.078;2022-09-09T03:24:15;100506.13;;;13.17;100.00
50103;BME280;35993;52.604;10.078;2022-09-09T03:26:41;100510.72;;;13.17;100.00
50103;BME280;35993;52.604;10.078;2022-09-09T03:29:12;100507.75;;;13.18;100.00
50103;BME280;35993;52.604;10.078;2022-09-09T03:31:39;100510.94;;;13.27;100.00
50103;BME280;35993;52.604;10.078;2022-09-09T03:34:06;100506.91;;;13.30;100.00
50103;BME280;35993;52.604;10.078;2022-09-09T03:36:33;100514.63;;;13.33;100.00
50103;BME280;35993;52.604;10.078;2022-09-09T03:38:59;100508.94;;;13.34;100.00
50103;BME280;35993;52.604;10.078;2022-09-09T03:41:28;100512.72;;;13.33;100.00
50103;BME280;35993;52.604;10.078;2022-09-09T03:43:54;100515.69;;;13.32;100.00
50103;BME280;35993;52.604;10.078;2022-09-09T03:46:23;100513.53;;;13.34;100.00
50103;BME280;35993;52.604;10.078;2022-09-09T03:48:50;100507.75;;;13.30;100.00
50103;BME280;35993;52.604;10.078;2022-09-09T03:51:17;100508.31;;;13.32;100.00
50103;BME280;35993;52.604;10.078;2022-09-09T03:53:43;100515.94;;;13.30;100.00
50103;BME280;35993;52.604;10.078;2022-09-09T03:56:10;100507.75;;;13.30;100.00
50103;BME280;35993;52.604;10.078;2022-09-09T03:58:37;100512.38;;;13.30;100.00
50103;BME280;35993;52.604;10.078;2022-09-09T04:01:09;100510.38;;;13.25;100.00
50103;BME280;35993;52.604;10.078;2022-09-09T04:03:37;100512.25;;;13.24;100.00
50103;BME280;35993;52.604;10.078;2022-09-09T04:06:04;100520.53;;;13.30;100.00
50103;BME280;35993;52.604;10.078;2022-09-09T04:08:31;100514.63;;;13.33;100.00
50103;BME280;35993;52.604;10.078;2022-09-09T04:10:58;100513.91;;;13.37;100.00
50103;BME280;35993;52.604;10.078;2022-09-09T04:13:25;100514.63;;;13.44;100.00
50103;BME280;35993;52.604;10.078;2022-09-09T04:15:56;100514.03;;;13.42;100.00
50103;BME280;35993;52.604;10.078;2022-09-09T04:18:23;100514.63;;;13.44;100.00
50103;BME280;35993;52.604;10.078;2022-09-09T04:20:50;100513.91;;;13.49;100.00
50103;BME280;35993;52.604;10.078;2022-09-09T04:23:18;100514.22;;;13.53;100.00
50103;BME280;35993;52.604;10.078;2022-09-09T04:25:50;100517.56;;;13.55;100.00
50103;BME280;35993;52.604;10.078;2022-09-09T04:28:18;100509.03;;;13.51;100.00
50103;BME280;35993;52.604;10.078;2022-09-09T04:30:45;100512.59;;;13.52;100.00
50103;BME280;35993;52.604;10.078;2022-09-09T04:33:12;100513.91;;;13.49;100.00
50103;BME280;35993;52.604;10.078;2022-09-09T04:35:39;100513.91;;;13.49;100.00
50103;BME280;35993;52.604;10.078;2022-09-09T04:38:08;100514.72;;;13.50;100.00
50103;BME280;35993;52.604;10.078;2022-09-09T04:40:35;100513.41;;;13.52;100.00
50103;BME280;35993;52.604;10.078;2022-09-09T04:43:02;100515.78;;;13.49;100.00
50103;BME280;35993;52.604;10.078;2022-09-09T04:45:31;100521.00;;;13.50;100.00
50103;BME280;35993;52.604;10.078;2022-09-09T04:47:58;100520.78;;;13.52;100.00
50103;BME280;35993;52.604;10.078;2022-09-09T04:50:23;100529.78;;;13.52;100.00
50103;BME280;35993;52.604;10.078;2022-09-09T04:53:00;100532.75;;;13.51;100.00
50103;BME280;35993;52.604;10.078;2022-09-09T04:55:27;100531.69;;;13.52;100.00
50103;BME280;35993;52.604;10.078;2022-09-09T04:57:53;100530.28;;;13.49;100.00
50103;BME280;35993;52.604;10.078;2022-09-09T05:00:19;100531.09;;;13.50;100.00
50103;BME280;35993;52.604;10.078;2022-09-09T05:02:46;100533.81;;;13.50;100.00
50103;BME280;35993;52.604;10.078;2022-09-09T05:05:12;100539.75;;;13.47;100.00
50103;BME280;35993;52.604;10.078;2022-09-09T05:07:38;100540.34;;;13.49;100.00
50103;BME280;35993;52.604;10.078;2022-09-09T05:10:05;100543.66;;;13.51;100.00
50103;BME280;35993;52.604;10.078;2022-09-09T05:12:31;100547.94;;;13.47;100.00
50103;BME280;35993;52.604;10.078;2022-09-09T05:14:57;100544.47;;;13.51;100.00
50103;BME280;35993;52.604;10.078;2022-09-09T05:17:23;100545.06;;;13.53;100.00
50103;BME280;35993;52.604;10.078;2022-09-09T05:19:49;100550.53;;;13.53;100.00
50103;BME280;35993;52.604;10.078;2022-09-09T05:22:20;100543.16;;;13.54;100.00
50103;BME280;35993;52.604;10.078;2022-09-09T05:24:49;100543.16;;;13.54;100.00
50103;BME280;35993;52.604;10.078;2022-09-09T05:27:18;100546.50;;;13.56;100.00
50103;BME280;35993;52.604;10.078;2022-09-09T05:29:46;100547.56;;;13.55;100.00
50103;BME280;35993;52.604;10.078;2022-09-09T05:32:12;100546.50;;;13.56;100.00
50103;BME280;35993;52.604;10.078;2022-09-09T05:34:40;100544.84;;;13.55;100.00
50103;BME280;35993;52.604;10.078;2022-09-09T05:37:06;100541.84;;;13.56;100.00
50103;BME280;35993;52.604;10.078;2022-09-09T05:39:34;100535.34;;;13.57;100.00
50103;BME280;35993;52.604;10.078;2022-09-09T05:42:03;100538.97;;;13.63;100.00
50103;BME280;35993;52.604;10.078;2022-09-09T05:44:31;100543.47;;;13.69;100.00
50103;BME280;35993;52.604;10.078;2022-09-09T05:46:58;100550.03;;;13.68;100.00
50103;BME280;35993;52.604;10.078;2022-09-09T05:49:24;100563.16;;;13.71;100.00
50103;BME280;35993;52.604;10.078;2022-09-09T05:51:50;100558.16;;;13.80;100.00
50103;BME280;35993;52.604;10.078;2022-09-09T05:54:17;100556.59;;;13.84;100.00
50103;BME280;35993;52.604;10.078;2022-09-09T05:56:47;100558.72;;;13.94;100.00
50103;BME280;35993;52.604;10.078;2022-09-09T05:59:15;100562.34;;;14.00;100.00
50103;BME280;35993;52.604;10.078;2022-09-09T06:01:41;100553.91;;;14.01;100.00
50103;BME280;35993;52.604;10.078;2022-09-09T06:04:11;100560.78;;;14.04;100.00
50103;BME280;35993;52.604;10.078;2022-09-09T06:06:39;100563.78;;;14.02;100.00
50103;BME280;35993;52.604;10.078;2022-09-09T06:09:12;100564.28;;;13.99;100.00
50103;BME280;35993;52.604;10.078;2022-09-09T06:11:41;100568.06;;;13.98;100.00
50103;BME280;35993;52.604;10.078;2022-09-09T06:14:08;100564.84;;;14.01;100.00
50103;BME280;35993;52.604;10.078;2022-09-09T06:16:34;100572.47;;;13.99;100.00
50103;BME280;35993;52.604;10.078;2022-09-09T06:19:01;100574.59;;;13.97;100.00
50103;BME280;35993;52.604;10.078;2022-09-09T06:21:34;100582.31;;;14.00;100.00
50103;BME280;35993;52.604;10.078;2022-09-09T06:24:01;100570.78;;;13.98;100.00
50103;BME280;35993;52.604;10.078;2022-09-09T06:26:29;100569.22;;;14.02;100.00
50103;BME280;35993;52.604;10.078;2022-09-09T06:28:56;100570.63;;;14.05;100.00
50103;BME280;35993;52.604;10.078;2022-09-09T06:31:25;100575.63;;;14.08;100.00
50103;BME280;35993;52.604;10.078;2022-09-09T06:33:53;100574.78;;;14.07;100.00
50103;BME280;35993;52.604;10.078;2022-09-09T06:36:34;100576.44;;;14.08;100.00
50103;BME280;35993;52.604;10.078;2022-09-09T06:39:00;100580.00;;;14.09;100.00
50103;BME280;35993;52.604;10.078;2022-09-09T06:41:28;100587.38;;;14.08;100.00
50103;BME280;35993;52.604;10.078;2022-09-09T06:43:55;100583.06;;;14.13;100.00
50103;BME280;35993;52.604;10.078;2022-09-09T06:46:30;100579.63;;;14.17;100.00
50103;BME280;35993;52.604;10.078;2022-09-09T06:48:58;100574.50;;;14.21;100.00
50103;BME280;35993;52.604;10.078;2022-09-09T06:51:29;100578.41;;;14.25;100.00
50103;BME280;35993;52.604;10.078;2022-09-09T06:53:56;100581.81;;;14.32;100.00
50103;BME280;35993;52.604;10.078;2022-09-09T06:56:29;100580.69;;;14.45;100.00
50103;BME280;35993;52.604;10.078;2022-09-09T06:58:58;100579.75;;;14.56;100.00
50103;BME280;35993;52.604;10.078;2022-09-09T07:01:32;100572.09;;;14.70;100.00
50103;BME280;35993;52.604;10.078;2022-09-09T07:04:02;100574.00;;;14.87;100.00
50103;BME280;35993;52.604;10.078;2022-09-09T07:06:32;100569.19;;;14.94;100.00
50103;BME280;35993;52.604;10.078;2022-09-09T07:09:02;100572.00;;;14.99;100.00
50103;BME280;35993;52.604;10.078;2022-09-09T07:11:32;100572.91;;;15.05;100.00
50103;BME280;35993;52.604;10.078;2022-09-09T07:13:59;100568.69;;;15.14;100.00
50103;BME280;35993;52.604;10.078;2022-09-09T07:16:25;100568.38;;;15.33;100.00
50103;BME280;35993;52.604;10.078;2022-09-09T07:18:53;100569.53;;;15.37;100.00
50103;BME280;35993;52.604;10.078;2022-09-09T07:21:24;100572.25;;;15.54;100.00
50103;BME280;35993;52.604;10.078;2022-09-09T07:23:51;100569.50;;;15.76;100.00
50103;BME280;35993;52.604;10.078;2022-09-09T07:26:18;100571.25;;;15.82;100.00
50103;BME280;35993;52.604;10.078;2022-09-09T07:28:47;100576.19;;;15.85;100.00
50103;BME280;35993;52.604;10.078;2022-09-09T07:31:17;100572.66;;;15.85;100.00
50103;BME280;35993;52.604;10.078;2022-09-09T07:33:43;100571.31;;;15.87;100.00
50103;BME280;35993;52.604;10.078;2022-09-09T07:38:40;100574.03;;;15.87;100.00
50103;BME280;35993;52.604;10.078;2022-09-09T07:41:08;100580.59;;;15.86;100.00
50103;BME280;35993;52.604;10.078;2022-09-09T07:43:41;100583.38;;;15.92;100.00
50103;BME280;35993;52.604;10.078;2022-09-09T07:46:09;100583.06;;;15.88;100.00
50103;BME280;35993;52.604;10.078;2022-09-09T07:48:35;100592.13;;;15.88;100.00
50103;BME280;35993;52.604;10.078;2022-09-09T07:51:11;100593.66;;;16.01;100.00
50103;BME280;35993;52.604;10.078;2022-09-09T07:53:40;100600.63;;;16.14;100.00
50103;BME280;35993;52.604;10.078;2022-09-09T07:56:09;100595.09;;;16.09;100.00
50103;BME280;35993;52.604;10.078;2022-09-09T07:58:36;100606.09;;;16.14;100.00
50103;BME280;35993;52.604;10.078;2022-09-09T08:01:07;100607.63;;;16.27;100.00
50103;BME280;35993;52.604;10.078;2022-09-09T08:03:34;100604.34;;;16.30;100.00
50103;BME280;35993;52.604;10.078;2022-09-09T08:06:01;100606.63;;;16.38;100.00
50103;BME280;35993;52.604;10.078;2022-09-09T08:08:28;100606.84;;;16.32;100.00
50103;BME280;35993;52.604;10.078;2022-09-09T08:10:53;100607.97;;;16.36;100.00
50103;BME280;35993;52.604;10.078;2022-09-09T08:13:26;100608.66;;;16.48;100.00
50103;BME280;35993;52.604;10.078;2022-09-09T08:15:52;100614.53;;;16.62;100.00
50103;BME280;35993;52.604;10.078;2022-09-09T08:18:18;100611.63;;;16.74;100.00
50103;BME280;35993;52.604;10.078;2022-09-09T08:20:47;100610.63;;;16.85;100.00
50103;BME280;35993;52.604;10.078;2022-09-09T08:23:14;100613.09;;;16.87;100.00
50103;BME280;35993;52.604;10.078;2022-09-09T08:25:39;100614.25;;;16.91;100.00
50103;BME280;35993;52.604;10.078;2022-09-09T08:28:05;100620.69;;;17.07;100.00
50103;BME280;35993;52.604;10.078;2022-09-09T08:30:31;100611.72;;;17.17;100.00
50103;BME280;35993;52.604;10.078;2022-09-09T08:32:57;100612.88;;;17.31;100.00
50103;BME280;35993;52.604;10.078;2022-09-09T08:35:23;100617.53;;;17.26;100.00
50103;BME280;35993;52.604;10.078;2022-09-09T08:37:53;100616.13;;;17.23;100.00
50103;BME280;35993;52.604;10.078;2022-09-09T08:40:27;100622.47;;;17.29;100.00
50103;BME280;35993;52.604;10.078;2022-09-09T08:42:56;100618.13;;;17.33;100.00
50103;BME280;35993;52.604;10.078;2022-09-09T08:49:02;100623.31;;;17.29;100.00
50103;BME280;35993;52.604;10.078;2022-09-09T08:51:30;100615.94;;;17.35;100.00
50103;BME280;35993;52.604;10.078;2022-09-09T08:53:59;100621.28;;;17.57;100.00
50103;BME280;35993;52.604;10.078;2022-09-09T08:56:31;100625.81;;;17.79;100.00
50103;BME280;35993;52.604;10.078;2022-09-09T08:59:00;100632.97;;;17.90;100.00
50103;BME280;35993;52.604;10.078;2022-09-09T09:04:58;100628.53;;;17.74;100.00
50103;BME280;35993;52.604;10.078;2022-09-09T09:10:46;100628.47;;;17.68;100.00
50103;BME280;35993;52.604;10.078;2022-09-09T09:13:19;100628.44;;;17.63;100.00
50103;BME280;35993;52.604;10.078;2022-09-09T09:15:56;100636.66;;;17.58;100.00
50103;BME280;35993;52.604;10.078;2022-09-09T09:18:24;100630.91;;;17.60;100.00
50103;BME280;35993;52.604;10.078;2022-09-09T09:21:00;100628.97;;;17.55;100.00
50103;BME280;35993;52.604;10.078;2022-09-09T09:23:40;100633.38;;;17.56;100.00
50103;BME280;35993;52.604;10.078;2022-09-09T09:26:09;100637.50;;;17.59;100.00
50103;BME280;35993;52.604;10.078;2022-09-09T09:28:40;100638.56;;;17.58;100.00
50103;BME280;35993;52.604;10.078;2022-09-09T09:31:12;100631.16;;;17.58;100.00
50103;BME280;35993;52.604;10.078;2022-09-09T09:36:09;100635.56;;;17.59;100.00
50103;BME280;35993;52.604;10.078;2022-09-09T09:38:37;100630.66;;;17.66;100.00
50103;BME280;35993;52.604;10.078;2022-09-09T09:41:03;100625.81;;;17.84;100.00
50103;BME280;35993;52.604;10.078;2022-09-09T09:43:34;100635.53;;;18.02;100.00
50103;BME280;35993;52.604;10.078;2022-09-09T09:46:05;100632.28;;;18.21;100.00
50103;BME280;35993;52.604;10.078;2022-09-09T09:48:31;100633.69;;;18.33;100.00
50103;BME280;35993;52.604;10.078;2022-09-09T09:51:10;100626.84;;;18.46;100.00
50103;BME280;35993;52.604;10.078;2022-09-09T09:53:39;100627.41;;;18.54;100.00
50103;BME280;35993;52.604;10.078;2022-09-09T09:56:09;100635.09;;;18.46;100.00
50103;BME280;35993;52.604;10.078;2022-09-09T09:58:50;100635.09;;;18.41;100.00
50103;BME280;35993;52.604;10.078;2022-09-09T10:01:32;100635.38;;;18.50;100.00
50103;BME280;35993;52.604;10.078;2022-09-09T10:04:17;100631.25;;;18.53;100.00
50103;BME280;35993;52.604;10.078;2022-09-09T10:06:44;100625.47;;;18.49;100.00
50103;BME280;35993;52.604;10.078;2022-09-09T10:09:28;100624.09;;;18.57;100.00
50103;BME280;35993;52.604;10.078;2022-09-09T10:15:15;100614.53;;;18.70;100.00
50103;BME280;35993;52.604;10.078;2022-09-09T10:20:32;100611.78;;;18.80;100.00
50103;BME280;35993;52.604;10.078;2022-09-09T10:35:02;100590.03;;;19.20;92.72
50103;BME280;35993;52.604;10.078;2022-09-09T10:40:33;100598.22;;;19.51;93.31
50103;BME280;35993;52.604;10.078;2022-09-09T10:46:18;100605.97;;;19.28;92.83
50103;BME280;35993;52.604;10.078;2022-09-09T10:54:53;100607.31;;;19.46;92.18
50103;BME280;35993;52.604;10.078;2022-09-09T10:56:58;100597.16;;;19.41;92.99
50103;BME280;35993;52.604;10.078;2022-09-09T10:59:33;100598.81;;;19.32;94.17
50103;BME280;35993;52.604;10.078;2022-09-09T11:04:34;100585.38;;;19.10;96.17
50103;BME280;35993;52.604;10.078;2022-09-09T11:07:08;100579.06;;;19.04;95.82
50103;BME280;35993;52.604;10.078;2022-09-09T11:09:42;100593.91;;;18.98;96.47
50103;BME280;35993;52.604;10.078;2022-09-09T11:12:17;100595.28;;;19.01;97.03
50103;BME280;35993;52.604;10.078;2022-09-09T11:14:51;100590.31;;;19.03;94.75
50103;BME280;35993;52.604;10.078;2022-09-09T11:17:21;100596.13;;;18.96;100.00
50103;BME280;35993;52.604;10.078;2022-09-09T11:19:49;100589.50;;;18.81;100.00
50103;BME280;35993;52.604;10.078;2022-09-09T11:25:01;100589.41;;;18.20;100.00
50103;BME280;35993;52.604;10.078;2022-09-09T11:28:01;100589.66;;;18.02;100.00
50103;BME280;35993;52.604;10.078;2022-09-09T11:30:44;100595.06;;;17.87;100.00
50103;BME280;35993;52.604;10.078;2022-09-09T11:33:49;100599.19;;;17.84;100.00
50103;BME280;35993;52.604;10.078;2022-09-09T11:38:47;100608.00;;;17.92;100.00
50103;BME280;35993;52.604;10.078;2022-09-09T11:41:17;100620.06;;;17.91;100.00
50103;BME280;35993;52.604;10.078;2022-09-09T11:46:13;100620.63;;;17.93;100.00
50103;BME280;35993;52.604;10.078;2022-09-09T11:48:42;100619.56;;;17.99;100.00
50103;BME280;35993;52.604;10.078;2022-09-09T11:51:27;100604.78;;;18.10;100.00
50103;BME280;35993;52.604;10.078;2022-09-09T11:53:59;100602.34;;;18.24;100.00
50103;BME280;35993;52.604;10.078;2022-09-09T11:56:34;100618.03;;;18.34;100.00
50103;BME280;35993;52.604;10.078;2022-09-09T11:59:22;100624.38;;;18.45;100.00
50103;BME280;35993;52.604;10.078;2022-09-09T12:02:00;100636.75;;;18.53;100.00
50103;BME280;35993;52.604;10.078;2022-09-09T12:04:34;100637.31;;;18.55;100.00
50103;BME280;35993;52.604;10.078;2022-09-09T12:07:21;100638.13;;;18.50;100.00
50103;BME280;35993;52.604;10.078;2022-09-09T12:12:35;100627.41;;;18.43;100.00
50103;BME280;35993;52.604;10.078;2022-09-09T12:15:17;100621.91;;;18.43;100.00
50103;BME280;35993;52.604;10.078;2022-09-09T12:17:51;100616.94;;;18.35;100.00
50103;BME280;35993;52.604;10.078;2022-09-09T12:20:26;100614.16;;;18.30;100.00
50103;BME280;35993;52.604;10.078;2022-09-09T12:31:58;100649.81;;;18.04;100.00
50103;BME280;35993;52.604;10.078;2022-09-09T12:37:38;100662.59;;;17.83;100.00
50103;BME280;35993;52.604;10.078;2022-09-09T12:40:18;100675.13;;;17.68;100.00
50103;BME280;35993;52.604;10.078;2022-09-09T12:42:44;100657.50;;;17.54;100.00
50103;BME280;35993;52.604;10.078;2022-09-09T12:45:19;100662.41;;;17.47;100.00
50103;BME280;35993;52.604;10.078;2022-09-09T12:47:53;100648.06;;;17.40;100.00
50103;BME280;35993;52.604;10.078;2022-09-09T12:50:22;100650.47;;;17.31;100.00
50103;BME280;35993;52.604;10.078;2022-09-09T12:52:53;100649.66;;;17.30;100.00
50103;BME280;35993;52.604;10.078;2022-09-09T12:55:21;100641.69;;;17.29;100.00
50103;BME280;35993;52.604;10.078;2022-09-09T12:57:51;100641.38;;;17.20;100.00
50103;BME280;35993;52.604;10.078;2022-09-09T13:00:18;100631.25;;;17.26;100.00
50103;BME280;35993;52.604;10.078;2022-09-09T13:03:00;100632.34;;;17.25;100.00
50103;BME280;35993;52.604;10.078;2022-09-09T13:05:34;100634.56;;;17.28;100.00
50103;BME280;35993;52.604;10.078;2022-09-09T13:08:02;100623.28;;;17.24;100.00
50103;BME280;35993;52.604;10.078;2022-09-09T13:10:29;100621.56;;;17.13;100.00
50103;BME280;35993;52.604;10.078;2022-09-09T13:12:59;100625.63;;;17.05;100.00
50103;BME280;35993;52.604;10.078;2022-09-09T13:15:28;100616.84;;;17.08;100.00
50103;BME280;35993;52.604;10.078;2022-09-09T13:17:57;100611.16;;;17.15;100.00
50103;BME280;35993;52.604;10.078;2022-09-09T13:20:24;100605.97;;;17.24;100.00
50103;BME280;35993;52.604;10.078;2022-09-09T13:22:52;100611.53;;;17.34;100.00
50103;BME280;35993;52.604;10.078;2022-09-09T13:28:00;100611.19;;;17.68;100.00
50103;BME280;35993;52.604;10.078;2022-09-09T13:30:35;100605.25;;;17.92;100.00
50103;BME280;35993;52.604;10.078;2022-09-09T13:35:50;100588.03;;;18.22;100.00
50103;BME280;35993;52.604;10.078;2022-09-09T13:38:17;100582.03;;;18.30;100.00
50103;BME280;35993;52.604;10.078;2022-09-09T13:40:59;100584.22;;;18.39;100.00
50103;BME280;35993;52.604;10.078;2022-09-09T13:43:28;100579.59;;;18.49;100.00
50103;BME280;35993;52.604;10.078;2022-09-09T13:45:58;100590.03;;;18.53;100.00
50103;BME280;35993;52.604;10.078;2022-09-09T13:48:25;100583.16;;;18.71;100.00
50103;BME280;35993;52.604;10.078;2022-09-09T13:50:56;100584.00;;;18.97;100.00
50103;BME280;35993;52.604;10.078;2022-09-09T13:53:22;100582.63;;;19.15;100.00
50103;BME280;35993;52.604;10.078;2022-09-09T13:55:47;100586.41;;;19.40;100.00
50103;BME280;35993;52.604;10.078;2022-09-09T13:58:17;100588.88;;;19.52;100.00
50103;BME280;35993;52.604;10.078;2022-09-09T14:00:45;100589.38;;;19.59;98.55
50103;BME280;35993;52.604;10.078;2022-09-09T14:03:11;100590.22;;;19.54;99.59
50103;BME280;35993;52.604;10.078;2022-09-09T14:05:37;100585.72;;;19.79;98.47
50103;BME280;35993;52.604;10.078;2022-09-09T14:08:04;100592.28;;;19.93;95.16
50103;BME280;35993;52.604;10.078;2022-09-09T14:10:31;100595.81;;;20.09;94.80
50103;BME280;35993;52.604;10.078;2022-09-09T14:12:57;100593.13;;;19.94;93.67
50103;BME280;35993;52.604;10.078;2022-09-09T14:15:22;100595.97;;;19.68;87.97
50103;BME280;35993;52.604;10.078;2022-09-09T14:17:48;100595.47;;;19.51;89.63
50103;BME280;35993;52.604;10.078;2022-09-09T14:20:14;100595.53;;;19.30;87.53
50103;BME280;35993;52.604;10.078;2022-09-09T14:22:41;100599.09;;;19.20;88.45
50103;BME280;35993;52.604;10.078;2022-09-09T14:25:07;100596.66;;;19.13;87.58
50103;BME280;35993;52.604;10.078;2022-09-09T14:27:33;100592.53;;;19.06;89.05
50103;BME280;35993;52.604;10.078;2022-09-09T14:29:59;100587.03;;;18.95;88.68
50103;BME280;35993;52.604;10.078;2022-09-09T14:32:26;100571.91;;;18.88;88.54
50103;BME280;35993;52.604;10.078;2022-09-09T14:34:52;100568.31;;;18.82;89.94
50103;BME280;35993;52.604;10.078;2022-09-09T14:37:18;100563.66;;;18.77;86.92
50103;BME280;35993;52.604;10.078;2022-09-09T14:39:44;100556.50;;;18.71;88.17
50103;BME280;35993;52.604;10.078;2022-09-09T14:42:10;100557.88;;;18.69;87.69
50103;BME280;35993;52.604;10.078;2022-09-09T14:44:37;100557.31;;;18.66;87.08